createdAt,value
2023-02-21T00:02:16.451Z,11.13
2023-02-21T00:05:07.204Z,11.17
2023-02-21T00:07:57.715Z,11.12
2023-02-21T00:10:47.778Z,11.16
2023-02-21T00:13:38.211Z,11.14
2023-02-21T00:16:33.648Z,11.11
2023-02-21T00:19:24.592Z,11.15
2023-02-21T00:22:15.080Z,11.17
2023-02-21T00:25:05.586Z,11.15
2023-02-21T00:27:55.985Z,11.15
2023-02-21T00:30:46.465Z,11.14
2023-02-21T00:33:38.185Z,11.11
2023-02-21T00:36:28.394Z,11.07
2023-02-21T00:39:18.680Z,11.18
2023-02-21T00:42:09.333Z,11.16
2023-02-21T00:44:59.898Z,11.14
2023-02-21T00:47:50.251Z,11.16
2023-02-21T00:50:42.188Z,11.14
2023-02-21T00:53:32.930Z,11.18
2023-02-21T00:56:24.030Z,10.99
2023-02-21T00:59:14.564Z,11.14
2023-02-21T01:02:05.689Z,11.13
2023-02-21T01:04:56.127Z,11.08
2023-02-21T01:07:47.861Z,11.18
2023-02-21T01:10:38.409Z,11.18
2023-02-21T01:13:29.578Z,11.19
2023-02-21T01:16:20.352Z,11.14
2023-02-21T01:19:10.774Z,11.18
2023-02-21T01:22:01.272Z,11.18
2023-02-21T01:24:53.037Z,11.21
2023-02-21T01:27:44.030Z,11.02
2023-02-21T01:30:34.693Z,11.18
2023-02-21T01:33:25.573Z,11.18
2023-02-21T01:36:15.982Z,11.19
2023-02-21T01:39:06.483Z,11.15
2023-02-21T01:41:58.397Z,11.17
2023-02-21T01:45:00.199Z,11.19
2023-02-21T01:47:51.232Z,11.20
2023-02-21T01:50:45.286Z,11.16
2023-02-21T01:53:40.294Z,11.10
2023-02-21T01:56:31.965Z,11.14
2023-02-21T01:59:23.714Z,11.08
2023-02-21T02:02:20.462Z,11.16
2023-02-21T02:05:11.481Z,11.18
2023-02-21T02:08:02.159Z,11.15
2023-02-21T02:10:52.780Z,11.18
2023-02-21T02:13:37.801Z,11.16
2023-02-21T02:16:17.552Z,11.17
2023-02-21T02:19:08.521Z,11.10
2023-02-21T02:22:13.678Z,11.15
2023-02-21T02:25:19.424Z,11.15
2023-02-21T02:28:07.462Z,11.06
2023-02-21T02:31:17.317Z,11.06
2023-02-21T02:34:23.525Z,11.14
2023-02-21T02:37:06.699Z,11.12
2023-02-21T02:39:41.651Z,11.08
2023-02-21T02:42:31.736Z,11.08
2023-02-21T02:45:10.010Z,11.02
2023-02-21T02:47:46.628Z,11.09
2023-02-21T02:50:22.365Z,11.13
2023-02-21T02:53:03.452Z,11.02
2023-02-21T02:55:42.978Z,11.12
2023-02-21T02:58:17.237Z,11.00
2023-02-21T03:01:01.791Z,10.99
2023-02-21T03:03:52.530Z,11.09
2023-02-21T03:06:34.866Z,11.03
2023-02-21T03:09:15.718Z,11.11
2023-02-21T03:11:57.868Z,10.96
2023-02-21T03:14:36.242Z,11.00
2023-02-21T03:17:12.984Z,11.09
2023-02-21T03:19:48.338Z,11.02
2023-02-21T03:22:26.757Z,11.13
2023-02-21T03:25:03.698Z,11.12
2023-02-21T03:27:40.322Z,11.09
2023-02-21T03:30:20.901Z,11.08
2023-02-21T03:32:56.961Z,11.09
2023-02-21T03:35:31.533Z,11.06
2023-02-21T03:38:05.563Z,11.09
2023-02-21T03:40:40.105Z,11.08
2023-02-21T03:43:12.784Z,11.06
2023-02-21T03:46:00.000Z,11.11
2023-02-21T03:48:35.081Z,11.13
2023-02-21T03:51:16.379Z,11.13
2023-02-21T03:53:49.344Z,11.09
2023-02-21T03:56:33.445Z,11.15
2023-02-21T03:59:22.456Z,11.08
2023-02-21T04:01:55.172Z,11.07
2023-02-21T04:04:29.438Z,11.06
2023-02-21T04:07:12.646Z,11.06
2023-02-21T04:09:46.123Z,11.13
2023-02-21T04:12:23.952Z,11.14
2023-02-21T04:14:58.670Z,11.10
2023-02-21T04:17:31.710Z,11.18
2023-02-21T04:20:06.390Z,11.13
2023-02-21T04:22:45.742Z,11.15
2023-02-21T04:25:20.736Z,11.05
2023-02-21T04:28:01.455Z,11.14
2023-02-21T04:30:34.165Z,11.17
2023-02-21T04:33:06.997Z,11.14
2023-02-21T04:35:40.126Z,11.17
2023-02-21T04:38:20.451Z,11.14
2023-02-21T04:40:53.045Z,11.13
2023-02-21T04:43:27.817Z,11.19
2023-02-21T04:46:00.887Z,11.16
2023-02-21T04:48:33.726Z,11.03
2023-02-21T04:51:15.120Z,11.14
2023-02-21T04:53:49.451Z,11.11
2023-02-21T04:56:23.829Z,11.14
2023-02-21T04:58:58.080Z,11.10
2023-02-21T05:01:32.138Z,11.10
2023-02-21T05:04:06.397Z,11.13
2023-02-21T05:06:39.146Z,11.16
2023-02-21T05:09:12.309Z,11.14
2023-02-21T05:11:45.234Z,11.13
2023-02-21T05:14:19.391Z,11.14
2023-02-21T05:16:52.203Z,11.11
2023-02-21T05:19:28.252Z,11.12
2023-02-21T05:22:03.603Z,11.14
2023-02-21T05:24:43.364Z,11.11
2023-02-21T05:27:17.369Z,11.13
2023-02-21T05:29:52.802Z,11.16
2023-02-21T05:32:29.557Z,11.12
2023-02-21T05:35:02.420Z,11.05
2023-02-21T05:37:35.038Z,11.10
2023-02-21T05:40:12.099Z,11.13
2023-02-21T05:42:44.995Z,11.15
2023-02-21T05:45:19.891Z,11.07
2023-02-21T05:47:56.264Z,11.12
2023-02-21T05:50:29.639Z,11.11
2023-02-21T05:53:02.997Z,11.07
2023-02-21T05:55:35.768Z,11.09
2023-02-21T05:58:08.513Z,11.14
2023-02-21T06:00:42.874Z,11.12
2023-02-21T06:03:15.649Z,11.13
2023-02-21T06:05:48.413Z,11.10
2023-02-21T06:08:21.082Z,11.08
2023-02-21T06:10:53.860Z,11.14
2023-02-21T06:13:26.586Z,11.08
2023-02-21T06:16:00.653Z,11.10
2023-02-21T06:18:33.566Z,11.07
2023-02-21T06:21:06.837Z,11.12
2023-02-21T06:23:39.507Z,11.12
2023-02-21T06:26:12.744Z,11.11
2023-02-21T06:28:45.568Z,11.08
2023-02-21T06:31:20.835Z,11.08
2023-02-21T06:33:53.766Z,11.10
2023-02-21T06:36:29.210Z,11.10
2023-02-21T06:39:01.930Z,11.13
2023-02-21T06:41:34.839Z,11.14
2023-02-21T06:44:07.510Z,11.10
2023-02-21T06:46:41.768Z,11.13
2023-02-21T06:49:14.506Z,11.12
2023-02-21T06:51:48.662Z,11.12
2023-02-21T06:54:21.670Z,11.13
2023-02-21T06:56:54.454Z,11.11
2023-02-21T06:59:27.189Z,11.10
2023-02-21T07:02:02.870Z,11.13
2023-02-21T07:04:35.574Z,11.12
2023-02-21T07:07:08.435Z,11.11
2023-02-21T07:09:41.326Z,11.12
2023-02-21T07:12:13.949Z,11.13
2023-02-21T07:14:46.779Z,11.12
2023-02-21T07:17:20.930Z,11.16
2023-02-21T07:19:53.717Z,11.12
2023-02-21T07:22:27.012Z,11.15
2023-02-21T07:24:59.809Z,11.12
2023-02-21T07:27:32.934Z,11.13
2023-02-21T07:30:07.778Z,11.16
2023-02-21T07:32:42.100Z,11.18
2023-02-21T07:35:15.308Z,11.20
2023-02-21T07:37:48.377Z,11.14
2023-02-21T07:40:21.141Z,11.20
2023-02-21T07:42:54.002Z,11.21
2023-02-21T07:45:26.740Z,11.25
2023-02-21T07:48:00.754Z,11.25
2023-02-21T07:50:33.465Z,11.25
2023-02-21T07:53:06.215Z,11.29
2023-02-21T07:55:39.032Z,11.28
2023-02-21T07:58:11.783Z,11.30
2023-02-21T08:00:44.630Z,11.28
2023-02-21T08:03:19.589Z,11.32
2023-02-21T08:05:52.433Z,11.33
2023-02-21T08:08:25.155Z,11.28
2023-02-21T08:10:57.932Z,11.31
2023-02-21T08:13:30.898Z,11.34
2023-02-21T08:16:03.876Z,11.32
2023-02-21T08:18:37.839Z,11.40
2023-02-21T08:21:11.777Z,11.40
2023-02-21T08:23:45.793Z,11.36
2023-02-21T08:26:18.567Z,11.39
2023-02-21T08:28:51.265Z,11.33
2023-02-21T08:31:24.022Z,11.38
2023-02-21T08:33:58.325Z,11.40
2023-02-21T08:36:34.419Z,11.41
2023-02-21T08:39:08.360Z,11.42
2023-02-21T08:41:43.472Z,11.41
2023-02-21T08:44:18.394Z,11.44
2023-02-21T08:46:51.278Z,11.47
2023-02-21T08:49:25.528Z,11.46
2023-02-21T08:51:58.332Z,11.44
2023-02-21T08:54:31.180Z,11.46
2023-02-21T08:57:03.950Z,11.45
2023-02-21T08:59:38.635Z,11.43
2023-02-21T09:02:17.290Z,11.47
2023-02-21T09:04:52.525Z,11.46
2023-02-21T09:07:25.250Z,11.50
2023-02-21T09:09:59.563Z,11.46
2023-02-21T09:12:33.905Z,11.35
2023-02-21T09:15:07.729Z,11.29
2023-02-21T09:17:40.458Z,11.28
2023-02-21T09:20:17.797Z,11.31
2023-02-21T09:22:51.106Z,11.32
2023-02-21T09:25:26.068Z,11.35
2023-02-21T09:28:00.423Z,11.38
2023-02-21T09:30:33.277Z,11.33
2023-02-21T09:33:05.983Z,11.37
2023-02-21T09:35:40.260Z,11.42
2023-02-21T09:38:13.023Z,11.41
2023-02-21T09:40:50.361Z,11.44
2023-02-21T09:43:32.532Z,11.45
2023-02-21T09:46:10.015Z,11.45
2023-02-21T09:48:45.152Z,11.44
2023-02-21T09:51:19.333Z,11.46
2023-02-21T09:53:56.785Z,11.52
2023-02-21T09:56:34.107Z,11.46
2023-02-21T09:59:14.122Z,11.50
2023-02-21T10:01:57.380Z,11.49
2023-02-21T10:04:42.347Z,11.47
2023-02-21T10:07:23.006Z,11.51
2023-02-21T10:10:05.894Z,11.55
2023-02-21T10:12:45.634Z,11.54
2023-02-21T10:15:32.239Z,11.52
2023-02-21T10:18:10.271Z,11.49
2023-02-21T10:20:48.398Z,11.55
2023-02-21T10:23:26.580Z,11.53
2023-02-21T10:26:07.326Z,11.54
2023-02-21T10:28:40.846Z,11.57
2023-02-21T10:31:19.323Z,11.56
2023-02-21T10:33:52.471Z,11.55
2023-02-21T10:36:25.207Z,11.54
2023-02-21T10:39:05.289Z,11.59
2023-02-21T10:41:41.020Z,11.56
2023-02-21T10:44:18.676Z,11.57
2023-02-21T10:46:59.650Z,11.61
2023-02-21T10:49:40.452Z,11.62
2023-02-21T10:52:16.420Z,11.65
2023-02-21T10:55:03.414Z,11.67
2023-02-21T10:57:42.106Z,11.68
2023-02-21T11:00:25.186Z,11.72
2023-02-21T11:03:03.560Z,11.73
2023-02-21T11:05:39.125Z,11.72
2023-02-21T11:08:13.261Z,11.72
2023-02-21T11:10:47.521Z,11.68
2023-02-21T11:13:22.877Z,11.77
2023-02-21T11:16:11.496Z,11.64
2023-02-21T11:18:44.413Z,11.66
2023-02-21T11:21:18.214Z,11.71
2023-02-21T11:24:02.711Z,11.76
2023-02-21T11:26:45.473Z,11.86
2023-02-21T11:29:24.086Z,11.81
2023-02-21T11:31:57.659Z,11.78
2023-02-21T11:34:31.200Z,11.75
2023-02-21T11:37:05.465Z,11.88
2023-02-21T11:39:38.967Z,11.92
2023-02-21T11:42:28.953Z,11.95
2023-02-21T11:45:18.802Z,11.86
2023-02-21T11:47:59.028Z,11.90
2023-02-21T11:50:37.384Z,11.93
2023-02-21T11:53:20.919Z,11.84
2023-02-21T11:56:02.512Z,11.89
2023-02-21T11:58:45.546Z,11.75
2023-02-21T12:01:27.382Z,11.86
2023-02-21T12:04:19.122Z,11.93
2023-02-21T12:07:00.955Z,11.93
2023-02-21T12:09:44.306Z,11.98
2023-02-21T12:12:30.218Z,11.94
2023-02-21T12:15:23.537Z,11.96
2023-02-21T12:18:10.208Z,11.93
2023-02-21T12:21:09.060Z,11.97
2023-02-21T12:23:50.462Z,11.87
2023-02-21T12:26:35.581Z,12.01
2023-02-21T12:29:23.429Z,12.06
2023-02-21T12:32:23.373Z,12.02
2023-02-21T12:35:15.553Z,12.03
2023-02-21T12:37:55.812Z,12.03
2023-02-21T12:40:31.215Z,12.06
2023-02-21T12:43:19.972Z,12.00
2023-02-21T12:46:02.840Z,11.85
2023-02-21T12:48:42.342Z,11.97
2023-02-21T12:51:19.229Z,11.86
2023-02-21T12:53:55.947Z,12.07
2023-02-21T12:56:34.648Z,12.08
2023-02-21T12:59:12.845Z,12.18
2023-02-21T13:01:50.329Z,12.16
2023-02-21T13:04:33.039Z,12.15
2023-02-21T13:07:25.639Z,12.01
2023-02-21T13:10:03.775Z,11.96
2023-02-21T13:12:41.810Z,12.00
2023-02-21T13:15:20.511Z,12.08
2023-02-21T13:17:59.871Z,12.15
2023-02-21T13:20:38.496Z,12.22
2023-02-21T13:23:31.384Z,12.19
2023-02-21T13:26:41.457Z,11.97
2023-02-21T13:29:20.358Z,11.99
2023-02-21T13:32:01.226Z,12.03
2023-02-21T13:34:39.193Z,12.00
2023-02-21T13:37:19.569Z,12.09
2023-02-21T13:39:54.975Z,12.08
2023-02-21T13:42:30.989Z,12.07
2023-02-21T13:45:17.252Z,12.05
2023-02-21T13:48:26.762Z,11.79
2023-02-21T13:51:00.819Z,11.80
2023-02-21T13:54:09.027Z,11.88
2023-02-21T13:56:43.466Z,11.78
2023-02-21T13:59:34.833Z,11.82
2023-02-21T14:02:32.844Z,11.84
2023-02-21T14:05:08.856Z,11.83
2023-02-21T14:07:45.118Z,11.87
2023-02-21T14:10:26.120Z,11.94
2023-02-21T14:13:03.946Z,11.86
2023-02-21T14:15:38.778Z,11.84
2023-02-21T14:18:26.520Z,11.92
2023-02-21T14:21:00.672Z,11.87
2023-02-21T14:23:42.637Z,11.87
2023-02-21T14:26:43.981Z,11.80
2023-02-21T14:29:33.789Z,11.81
2023-02-21T14:32:29.299Z,11.75
2023-02-21T14:35:03.769Z,11.75
2023-02-21T14:37:39.887Z,11.71
2023-02-21T14:40:27.763Z,11.71
2023-02-21T14:43:32.972Z,11.63
2023-02-21T14:46:30.658Z,11.67
2023-02-21T14:49:29.474Z,11.67
2023-02-21T14:52:26.324Z,11.72
2023-02-21T14:55:30.200Z,11.69
2023-02-21T14:58:39.019Z,11.69
2023-02-21T15:01:25.715Z,11.65
2023-02-21T15:04:05.500Z,11.65
2023-02-21T15:06:43.208Z,11.63
2023-02-21T15:09:21.594Z,11.66
2023-02-21T15:11:55.292Z,11.66
2023-02-21T15:14:33.374Z,11.65
2023-02-21T15:17:14.076Z,11.67
2023-02-21T15:19:46.819Z,11.60
2023-02-21T15:22:25.164Z,11.57
2023-02-21T15:25:14.754Z,11.58
2023-02-21T15:27:59.761Z,11.63
2023-02-21T15:30:40.324Z,11.61
2023-02-21T15:33:17.150Z,11.67
2023-02-21T15:35:52.339Z,11.68
2023-02-21T15:38:30.831Z,11.67
2023-02-21T15:41:09.099Z,11.71
2023-02-21T15:43:50.443Z,11.66
2023-02-21T15:46:28.312Z,11.67
2023-02-21T15:49:04.906Z,11.68
2023-02-21T15:51:39.147Z,11.68
2023-02-21T15:54:28.160Z,11.68
2023-02-21T15:57:09.239Z,11.64
2023-02-21T15:59:42.513Z,11.63
2023-02-21T16:02:18.242Z,11.61
2023-02-21T16:04:52.561Z,11.55
2023-02-21T16:07:37.481Z,11.57
2023-02-21T16:10:15.386Z,11.56
2023-02-21T16:12:56.510Z,11.52
2023-02-21T16:15:32.041Z,11.52
2023-02-21T16:18:08.552Z,11.50
2023-02-21T16:20:43.760Z,11.51
2023-02-21T16:23:26.275Z,11.52
2023-02-21T16:26:02.213Z,11.53
2023-02-21T16:28:35.179Z,11.48
2023-02-21T16:31:08.851Z,11.49
2023-02-21T16:33:43.208Z,11.49
2023-02-21T16:36:21.486Z,11.48
2023-02-21T16:38:54.933Z,11.45
2023-02-21T16:41:27.912Z,11.43
2023-02-21T16:44:02.586Z,11.45
2023-02-21T16:46:35.439Z,11.41
2023-02-21T16:49:10.779Z,11.41
2023-02-21T16:51:43.941Z,11.38
2023-02-21T16:54:17.418Z,11.34
2023-02-21T16:56:52.898Z,11.35
2023-02-21T16:59:26.110Z,11.38
2023-02-21T17:01:59.017Z,11.34
2023-02-21T17:04:33.909Z,11.30
2023-02-21T17:07:09.629Z,11.31
2023-02-21T17:09:42.793Z,11.26
2023-02-21T17:12:15.974Z,11.28
2023-02-21T17:14:48.577Z,11.27
2023-02-21T17:17:21.343Z,11.27
2023-02-21T17:19:55.863Z,11.26
2023-02-21T17:22:28.689Z,11.27
2023-02-21T17:25:01.945Z,11.22
2023-02-21T17:27:34.789Z,11.24
2023-02-21T17:30:08.377Z,11.23
2023-02-21T17:32:41.199Z,11.25
2023-02-21T17:35:16.386Z,11.23
2023-02-21T17:37:50.575Z,11.20
2023-02-21T17:40:25.296Z,11.20
2023-02-21T17:42:58.707Z,11.17
2023-02-21T17:45:31.434Z,11.19
2023-02-21T17:48:05.976Z,11.16
2023-02-21T17:50:40.197Z,11.15
2023-02-21T17:53:12.976Z,11.14
2023-02-21T17:55:45.716Z,11.13
2023-02-21T17:58:18.481Z,11.15
2023-02-21T18:00:51.815Z,11.12
2023-02-21T18:03:24.712Z,11.12
2023-02-21T18:05:59.459Z,11.13
2023-02-21T18:08:32.710Z,11.03
2023-02-21T18:11:05.870Z,11.08
2023-02-21T18:13:38.794Z,11.05
2023-02-21T18:16:11.280Z,11.07
2023-02-21T18:18:45.217Z,11.08
2023-02-21T18:21:22.613Z,11.08
2023-02-21T18:23:55.501Z,11.10
2023-02-21T18:26:28.221Z,11.06
2023-02-21T18:29:00.875Z,11.03
2023-02-21T18:31:34.899Z,11.04
2023-02-21T18:34:07.799Z,11.07
2023-02-21T18:36:47.233Z,11.02
2023-02-21T18:39:21.894Z,11.03
2023-02-21T18:41:54.651Z,11.02
2023-02-21T18:44:27.424Z,11.03
2023-02-21T18:47:01.364Z,11.01
2023-02-21T18:49:38.743Z,11.03
2023-02-21T18:52:13.511Z,11.05
2023-02-21T18:54:47.175Z,11.01
2023-02-21T18:57:21.609Z,10.98
2023-02-21T18:59:54.322Z,10.99
2023-02-21T19:02:27.390Z,11.00
2023-02-21T19:05:00.115Z,10.99
2023-02-21T19:07:36.436Z,11.00
2023-02-21T19:10:10.846Z,10.98
2023-02-21T19:12:43.759Z,10.97
2023-02-21T19:15:17.148Z,10.96
2023-02-21T19:17:49.981Z,10.95
2023-02-21T19:20:22.789Z,10.93
2023-02-21T19:22:57.086Z,10.92
2023-02-21T19:25:30.998Z,10.89
2023-02-21T19:28:06.758Z,10.88
2023-02-21T19:30:39.655Z,10.94
2023-02-21T19:33:12.443Z,10.94
2023-02-21T19:35:45.751Z,10.90
2023-02-21T19:38:19.896Z,10.88
2023-02-21T19:40:52.621Z,10.88
2023-02-21T19:43:25.369Z,10.89
2023-02-21T19:45:58.019Z,10.86
2023-02-21T19:48:30.875Z,10.85
2023-02-21T19:51:03.808Z,10.87
2023-02-21T19:53:37.840Z,10.88
2023-02-21T19:56:10.649Z,10.86
2023-02-21T19:58:45.167Z,10.87
2023-02-21T20:01:18.444Z,10.84
2023-02-21T20:03:52.424Z,10.85
2023-02-21T20:06:27.794Z,10.83
2023-02-21T20:09:02.567Z,10.84
2023-02-21T20:11:36.021Z,10.80
2023-02-21T20:14:09.496Z,10.77
2023-02-21T20:16:44.217Z,10.75
2023-02-21T20:19:17.058Z,10.76
2023-02-21T20:21:51.780Z,10.72
2023-02-21T20:24:25.866Z,10.64
2023-02-21T20:26:58.656Z,10.78
2023-02-21T20:29:31.417Z,10.76
2023-02-21T20:32:06.858Z,10.77
2023-02-21T20:34:40.268Z,10.73
2023-02-21T20:37:14.398Z,10.70
2023-02-21T20:39:49.761Z,10.71
2023-02-21T20:42:22.788Z,10.71
2023-02-21T20:44:55.774Z,10.73
2023-02-21T20:47:29.196Z,10.69
2023-02-21T20:50:01.772Z,10.72
2023-02-21T20:52:35.352Z,10.74
2023-02-21T20:55:09.956Z,10.69
2023-02-21T20:57:42.957Z,10.67
2023-02-21T21:00:18.488Z,10.68
2023-02-21T21:02:51.434Z,10.72
2023-02-21T21:05:24.382Z,10.70
2023-02-21T21:07:57.292Z,10.73
2023-02-21T21:10:31.213Z,10.64
2023-02-21T21:13:04.079Z,10.62
2023-02-21T21:15:36.611Z,10.68
2023-02-21T21:18:10.170Z,10.70
2023-02-21T21:20:42.799Z,10.66
2023-02-21T21:23:15.448Z,10.68
2023-02-21T21:25:49.890Z,10.69
2023-02-21T21:28:22.509Z,10.62
2023-02-21T21:30:55.300Z,10.62
2023-02-21T21:33:28.448Z,10.65
2023-02-21T21:36:01.000Z,10.63
2023-02-21T21:38:50.084Z,10.66
2023-02-21T21:41:24.253Z,10.61
2023-02-21T21:43:59.263Z,10.66
2023-02-21T21:46:32.963Z,10.59
2023-02-21T21:49:06.367Z,10.57
2023-02-21T21:51:39.052Z,10.55
2023-02-21T21:54:12.508Z,10.57
2023-02-21T21:56:46.484Z,10.48
2023-02-21T21:59:20.418Z,10.47
2023-02-21T22:01:53.812Z,10.52
2023-02-21T22:04:27.780Z,10.49
2023-02-21T22:07:00.332Z,10.54
2023-02-21T22:09:32.863Z,10.48
2023-02-21T22:12:08.032Z,10.45
2023-02-21T22:14:40.683Z,10.50
2023-02-21T22:17:13.222Z,10.47
2023-02-21T22:19:47.430Z,10.46
2023-02-21T22:22:20.047Z,10.54
2023-02-21T22:24:52.796Z,10.48
2023-02-21T22:27:26.752Z,10.47
2023-02-21T22:29:59.305Z,10.49
2023-02-21T22:32:31.950Z,10.46
2023-02-21T22:35:04.961Z,10.51
2023-02-21T22:37:37.466Z,10.45
2023-02-21T22:40:10.833Z,10.43
2023-02-21T22:42:44.783Z,10.45
2023-02-21T22:45:18.170Z,10.47
2023-02-21T22:47:51.875Z,10.46
2023-02-21T22:50:25.442Z,10.49
2023-02-21T22:52:58.981Z,10.50
2023-02-21T22:55:31.752Z,10.47
2023-02-21T22:58:07.560Z,10.45
2023-02-21T23:00:40.168Z,10.44
2023-02-21T23:03:13.780Z,10.45
2023-02-21T23:05:47.843Z,10.48
2023-02-21T23:08:21.671Z,10.42
2023-02-21T23:10:54.233Z,10.45
2023-02-21T23:13:28.186Z,10.47
2023-02-21T23:16:01.333Z,10.43
2023-02-21T23:18:34.120Z,10.48
2023-02-21T23:21:09.870Z,10.49
2023-02-21T23:23:42.333Z,10.47
2023-02-21T23:26:19.412Z,10.42
2023-02-21T23:28:53.378Z,10.46
2023-02-21T23:31:25.946Z,10.42
2023-02-21T23:33:58.589Z,10.38
2023-02-21T23:36:31.492Z,10.43
2023-02-21T23:39:08.813Z,10.40
2023-02-21T23:41:41.939Z,10.43
2023-02-21T23:44:16.200Z,10.40
2023-02-21T23:46:50.310Z,10.34
2023-02-21T23:49:24.358Z,10.39
2023-02-21T23:51:57.008Z,10.37
2023-02-21T23:54:29.756Z,10.42
2023-02-21T23:57:02.322Z,10.41
2023-02-21T23:59:36.389Z,10.42
